Time;durP1;ratioP1;P1;durP2;ratioP2;P2;SDS_P1;SDS_P2;PMS_P1;PMS_P2;Temp;Humidity;BMP_temperature;BMP_pressure;BME280_temperature;BME280_humidity;BME280_pressure;Samples;Min_cycle;Max_cycle;Signal;HPM_P1;HPM_P2
2023/08/12 00:00:13;;;;;;;13.02;11.85;;;;;;;;;;5102725;28;20043;-76
2023/08/12 00:02:43;;;;;;;12.57;11.48;;;;;;;;;;5090862;28;20441;-76
2023/08/12 00:05:11;;;;;;;12.55;11.45;;;;;;;;;;5106649;28;20134;-76
2023/08/12 00:07:38;;;;;;;12.43;11.17;;;;;;;;;;5105027;28;20031;-76
2023/08/12 00:10:05;;;;;;;13.10;11.90;;;;;;;;;;5104711;28;20040;-75
2023/08/12 00:12:34;;;;;;;12.45;11.35;;;;;;;;;;5104041;28;20043;-76
2023/08/12 00:15:00;;;;;;;12.73;11.63;;;;;;;;;;5104949;28;20104;-76
2023/08/12 00:17:26;;;;;;;12.88;11.68;;;;;;;;;;5104266;28;20031;-76
2023/08/12 00:19:52;;;;;;;12.30;11.23;;;;;;;;;;5103901;28;20041;-75
2023/08/12 00:22:18;;;;;;;12.07;10.98;;;;;;;;;;5103111;28;20035;-75
2023/08/12 00:24:44;;;;;;;13.13;11.93;;;;;;;;;;5106070;28;20032;-75
2023/08/12 00:27:10;;;;;;;12.63;11.48;;;;;;;;;;5097937;28;20023;-77
2023/08/12 00:29:36;;;;;;;14.40;11.10;;;;;;;;;;5087101;28;20040;-75
2023/08/12 00:32:02;;;;;;;12.43;11.23;;;;;;;;;;5089699;28;20123;-75
2023/08/12 00:34:28;;;;;;;13.50;12.02;;;;;;;;;;5088290;28;20063;-76
2023/08/12 00:36:54;;;;;;;13.48;12.07;;;;;;;;;;5088797;28;20086;-75
2023/08/12 00:39:22;;;;;;;13.15;11.95;;;;;;;;;;5108222;27;20046;-76
2023/08/12 00:41:48;;;;;;;12.85;11.65;;;;;;;;;;5073391;28;20035;-76
2023/08/12 00:44:14;;;;;;;13.90;12.05;;;;;;;;;;5110162;27;20042;-76
2023/08/12 00:46:41;;;;;;;13.27;11.82;;;;;;;;;;5109824;27;20037;-78
2023/08/12 00:49:06;;;;;;;12.48;11.48;;;;;;;;;;5110629;27;20035;-78
2023/08/12 00:51:32;;;;;;;12.70;11.63;;;;;;;;;;5106212;28;20475;-76
2023/08/12 00:53:58;;;;;;;13.88;12.55;;;;;;;;;;5094460;28;20039;-76
2023/08/12 00:56:26;;;;;;;12.68;11.57;;;;;;;;;;5088426;28;20036;-75
2023/08/12 00:58:52;;;;;;;14.07;11.30;;;;;;;;;;5089336;28;20092;-76
2023/08/12 01:01:19;;;;;;;12.20;11.10;;;;;;;;;;5090764;28;20111;-76
2023/08/12 01:03:45;;;;;;;13.13;11.82;;;;;;;;;;5090589;27;20039;-75
2023/08/12 01:06:11;;;;;;;13.48;12.23;;;;;;;;;;5087850;28;20031;-74
2023/08/12 01:08:37;;;;;;;13.45;12.15;;;;;;;;;;5088681;28;20043;-76
2023/08/12 01:11:36;;;;;;;13.02;11.70;;;;;;;;;;5112149;27;20046;-76
2023/08/12 01:14:14;;;;;;;13.25;12.05;;;;;;;;;;5106686;28;20130;-76
2023/08/12 01:16:45;;;;;;;12.82;11.70;;;;;;;;;;5103844;28;20028;-76
2023/08/12 01:19:24;;;;;;;12.50;11.50;;;;;;;;;;5087869;27;20114;-76
2023/08/12 01:21:52;;;;;;;12.43;11.43;;;;;;;;;;5103791;27;20032;-75
2023/08/12 01:24:24;;;;;;;13.30;12.15;;;;;;;;;;5107846;27;20038;-76
2023/08/12 01:26:49;;;;;;;12.68;11.63;;;;;;;;;;5090415;28;20388;-74
2023/08/12 01:29:16;;;;;;;12.23;11.00;;;;;;;;;;5090355;28;20042;-76
2023/08/12 01:31:49;;;;;;;12.82;11.52;;;;;;;;;;5089116;28;20470;-75
2023/08/12 01:34:33;;;;;;;13.07;11.57;;;;;;;;;;5089457;28;20043;-76
2023/08/12 01:37:02;;;;;;;12.75;11.57;;;;;;;;;;5108126;28;20069;-76
2023/08/12 01:39:30;;;;;;;14.07;11.68;;;;;;;;;;5073198;28;20035;-75
2023/08/12 01:41:57;;;;;;;13.43;12.20;;;;;;;;;;5087823;28;20027;-76
2023/08/12 01:44:22;;;;;;;13.38;12.07;;;;;;;;;;5089183;27;20035;-75
2023/08/12 01:46:50;;;;;;;12.45;11.35;;;;;;;;;;5107334;28;20043;-75
2023/08/12 01:49:17;;;;;;;14.23;11.30;;;;;;;;;;5090793;27;20035;-77
2023/08/12 01:51:43;;;;;;;13.40;12.20;;;;;;;;;;5069871;28;20099;-76
2023/08/12 01:54:09;;;;;;;12.52;11.52;;;;;;;;;;5087751;28;20028;-75
2023/08/12 01:56:34;;;;;;;12.95;11.68;;;;;;;;;;5091179;27;20393;-75
2023/08/12 01:59:00;;;;;;;12.30;11.40;;;;;;;;;;5088996;28;20043;-75
2023/08/12 02:01:25;;;;;;;11.85;10.70;;;;;;;;;;5089235;28;20395;-75
2023/08/12 02:03:52;;;;;;;11.95;11.02;;;;;;;;;;5104425;28;20031;-74
2023/08/12 02:06:19;;;;;;;12.15;11.07;;;;;;;;;;5089995;28;20078;-75
2023/08/12 02:08:45;;;;;;;14.25;11.90;;;;;;;;;;5068625;28;20048;-76
2023/08/12 02:11:10;;;;;;;12.15;10.95;;;;;;;;;;5089494;28;20081;-75
2023/08/12 02:13:36;;;;;;;12.00;10.80;;;;;;;;;;5109464;27;20035;-76
2023/08/12 02:16:01;;;;;;;11.68;10.48;;;;;;;;;;5086360;28;20040;-76
2023/08/12 02:18:27;;;;;;;11.90;10.77;;;;;;;;;;5106524;27;20399;-76
2023/08/12 02:20:52;;;;;;;11.57;10.55;;;;;;;;;;5084945;28;20039;-75
2023/08/12 02:23:18;;;;;;;11.73;10.82;;;;;;;;;;5089348;28;20035;-75
2023/08/12 02:25:44;;;;;;;12.13;11.02;;;;;;;;;;5090392;27;20043;-76
2023/08/12 02:28:10;;;;;;;11.60;10.60;;;;;;;;;;5084195;28;20057;-75
2023/08/12 02:30:35;;;;;;;11.90;10.93;;;;;;;;;;5096950;28;20396;-78
2023/08/12 02:33:01;;;;;;;11.77;10.85;;;;;;;;;;5106607;28;20046;-75
2023/08/12 02:35:26;;;;;;;12.02;10.93;;;;;;;;;;5081503;28;20040;-75
2023/08/12 02:37:52;;;;;;;11.57;10.57;;;;;;;;;;5087737;28;20047;-77
2023/08/12 02:40:17;;;;;;;12.00;10.93;;;;;;;;;;5089669;28;20067;-74
2023/08/12 02:42:43;;;;;;;12.05;11.05;;;;;;;;;;5084285;28;20553;-76
2023/08/12 02:45:09;;;;;;;11.98;11.07;;;;;;;;;;5077227;28;20047;-76
2023/08/12 02:47:34;;;;;;;12.52;11.48;;;;;;;;;;5092417;28;20432;-76
2023/08/12 02:50:00;;;;;;;12.02;11.02;;;;;;;;;;5089112;27;20041;-74
2023/08/12 02:52:26;;;;;;;11.70;10.63;;;;;;;;;;5089758;28;20066;-75
2023/08/12 02:54:51;;;;;;;11.65;10.55;;;;;;;;;;5105817;27;20035;-75
2023/08/12 02:57:17;;;;;;;11.43;10.52;;;;;;;;;;5088131;28;20032;-75
2023/08/12 02:59:42;;;;;;;11.98;10.77;;;;;;;;;;5090926;28;20035;-76
2023/08/12 03:02:08;;;;;;;11.95;10.82;;;;;;;;;;5103351;27;20035;-76
2023/08/12 03:04:34;;;;;;;12.50;11.50;;;;;;;;;;5090563;27;20059;-77
2023/08/12 03:06:59;;;;;;;12.40;11.15;;;;;;;;;;5114818;27;20509;-74
2023/08/12 03:09:25;;;;;;;12.13;10.52;;;;;;;;;;5081722;28;20031;-74
2023/08/12 03:11:51;;;;;;;12.45;11.35;;;;;;;;;;5091144;28;20092;-75
2023/08/12 03:14:16;;;;;;;11.27;10.30;;;;;;;;;;5087041;28;20444;-77
2023/08/12 03:16:42;;;;;;;11.85;10.85;;;;;;;;;;5086276;28;20043;-77
2023/08/12 03:19:08;;;;;;;11.60;10.60;;;;;;;;;;5084194;28;20032;-76
2023/08/12 03:21:34;;;;;;;12.50;11.27;;;;;;;;;;5088943;28;20120;-77
2023/08/12 03:24:00;;;;;;;13.02;11.68;;;;;;;;;;5070708;28;20055;-76
2023/08/12 03:26:26;;;;;;;11.38;10.40;;;;;;;;;;5084995;27;20098;-75
2023/08/12 03:28:54;;;;;;;12.10;11.00;;;;;;;;;;5088134;28;20406;-76
2023/08/12 03:31:20;;;;;;;11.90;10.90;;;;;;;;;;5091018;27;20600;-74
2023/08/12 03:33:46;;;;;;;12.43;11.00;;;;;;;;;;5085119;28;20039;-77
2023/08/12 03:36:13;;;;;;;11.43;10.23;;;;;;;;;;5088021;28;20031;-77
2023/08/12 03:38:39;;;;;;;12.43;11.32;;;;;;;;;;5088902;28;20145;-76
2023/08/12 03:41:09;;;;;;;12.10;10.73;;;;;;;;;;5083675;28;20063;-76
2023/08/12 03:43:34;;;;;;;13.63;11.45;;;;;;;;;;5107562;27;20108;-76
2023/08/12 03:46:00;;;;;;;12.13;11.13;;;;;;;;;;5088495;28;20039;-75
2023/08/12 03:48:26;;;;;;;12.52;11.35;;;;;;;;;;5074871;28;20035;-76
2023/08/12 03:50:52;;;;;;;13.02;11.20;;;;;;;;;;5087542;28;20109;-76
2023/08/12 03:53:18;;;;;;;16.38;11.93;;;;;;;;;;5104134;28;20031;-76
2023/08/12 03:55:43;;;;;;;11.48;10.48;;;;;;;;;;5080225;28;20043;-75
2023/08/12 03:58:11;;;;;;;12.52;10.85;;;;;;;;;;5088753;27;20027;-75
2023/08/12 04:00:42;;;;;;;11.85;10.75;;;;;;;;;;5087647;28;20051;-75
2023/08/12 04:03:09;;;;;;;11.52;10.63;;;;;;;;;;5087832;28;20031;-76
2023/08/12 04:05:34;;;;;;;13.20;10.93;;;;;;;;;;5087496;28;20084;-76
2023/08/12 04:08:01;;;;;;;11.15;10.25;;;;;;;;;;5081838;28;20106;-76
2023/08/12 04:10:30;;;;;;;12.07;10.68;;;;;;;;;;5088484;28;20104;-76
2023/08/12 04:12:55;;;;;;;11.35;10.35;;;;;;;;;;5087138;28;20691;-76
2023/08/12 04:15:21;;;;;;;12.13;11.10;;;;;;;;;;5108499;28;20042;-75
2023/08/12 04:17:46;;;;;;;11.70;10.70;;;;;;;;;;5086053;28;20040;-76
2023/08/12 04:20:12;;;;;;;11.30;10.40;;;;;;;;;;5087245;28;20126;-76
2023/08/12 04:22:37;;;;;;;11.77;10.77;;;;;;;;;;5088080;28;20067;-76
2023/08/12 04:25:04;;;;;;;11.88;10.77;;;;;;;;;;5091209;28;20169;-76
2023/08/12 04:27:29;;;;;;;11.27;10.30;;;;;;;;;;5086831;28;20095;-76
2023/08/12 04:29:55;;;;;;;11.43;10.52;;;;;;;;;;5069132;28;20035;-76
2023/08/12 04:32:21;;;;;;;12.32;10.50;;;;;;;;;;5067942;28;20048;-76
2023/08/12 04:34:47;;;;;;;11.93;10.73;;;;;;;;;;5120763;28;20088;-76
2023/08/12 04:37:14;;;;;;;11.18;10.18;;;;;;;;;;5103507;28;20036;-76
2023/08/12 04:39:42;;;;;;;11.13;10.23;;;;;;;;;;5090847;28;20032;-75
2023/08/12 04:42:09;;;;;;;11.43;10.52;;;;;;;;;;5084753;28;20094;-75
2023/08/12 04:44:34;;;;;;;11.52;10.35;;;;;;;;;;5088066;28;20508;-75
2023/08/12 04:47:00;;;;;;;11.43;10.43;;;;;;;;;;5068244;28;20070;-75
2023/08/12 04:49:27;;;;;;;11.07;10.07;;;;;;;;;;5087062;28;20023;-75
2023/08/12 04:51:52;;;;;;;10.90;10.10;;;;;;;;;;5087830;28;20510;-75
2023/08/12 04:54:19;;;;;;;11.77;10.57;;;;;;;;;;5080636;28;20092;-75
2023/08/12 04:56:45;;;;;;;12.27;11.27;;;;;;;;;;5087479;28;20126;-74
2023/08/12 04:59:11;;;;;;;12.65;11.45;;;;;;;;;;5085063;28;20157;-74
2023/08/12 05:01:37;;;;;;;11.52;10.50;;;;;;;;;;5089750;28;20098;-75
2023/08/12 05:04:03;;;;;;;11.25;10.35;;;;;;;;;;5091231;28;20095;-73
2023/08/12 05:06:29;;;;;;;11.90;10.20;;;;;;;;;;5090942;28;20027;-76
2023/08/12 05:08:55;;;;;;;12.07;10.93;;;;;;;;;;5107719;28;20042;-77
2023/08/12 05:11:21;;;;;;;11.57;10.57;;;;;;;;;;5111461;28;20052;-76
2023/08/12 05:13:46;;;;;;;11.60;10.55;;;;;;;;;;5097719;28;20088;-72
2023/08/12 05:16:12;;;;;;;11.48;10.32;;;;;;;;;;5085856;28;20081;-74
2023/08/12 05:18:37;;;;;;;12.93;9.82;;;;;;;;;;5089861;28;20031;-72
2023/08/12 05:21:03;;;;;;;11.55;10.40;;;;;;;;;;5086182;28;20103;-72
2023/08/12 05:23:29;;;;;;;12.13;11.02;;;;;;;;;;5089986;28;20087;-72
2023/08/12 05:25:54;;;;;;;11.70;10.68;;;;;;;;;;5089597;28;20055;-72
2023/08/12 05:28:20;;;;;;;11.50;10.60;;;;;;;;;;5107789;28;20035;-72
2023/08/12 05:30:46;;;;;;;10.80;10.02;;;;;;;;;;5105678;28;20051;-71
2023/08/12 05:33:11;;;;;;;11.68;10.55;;;;;;;;;;5108120;28;20063;-72
2023/08/12 05:35:37;;;;;;;11.02;10.07;;;;;;;;;;5106627;28;20035;-73
2023/08/12 05:38:03;;;;;;;11.20;10.18;;;;;;;;;;5097402;28;20099;-72
2023/08/12 05:40:28;;;;;;;11.40;10.40;;;;;;;;;;5105860;28;20031;-72
2023/08/12 05:42:54;;;;;;;11.02;10.00;;;;;;;;;;5106697;28;20059;-72
2023/08/12 05:45:19;;;;;;;14.60;10.45;;;;;;;;;;5106327;27;20046;-73
2023/08/12 05:47:45;;;;;;;11.07;10.07;;;;;;;;;;5101490;28;20084;-73
2023/08/12 05:50:11;;;;;;;12.07;10.35;;;;;;;;;;5105952;28;20087;-72
2023/08/12 05:52:36;;;;;;;10.80;9.88;;;;;;;;;;5107250;28;20036;-72
2023/08/12 05:55:02;;;;;;;11.20;10.20;;;;;;;;;;5106588;28;20096;-73
2023/08/12 05:57:28;;;;;;;12.05;10.75;;;;;;;;;;5103472;28;20114;-73
2023/08/12 05:59:53;;;;;;;11.40;10.30;;;;;;;;;;5106467;28;20671;-73
2023/08/12 06:02:19;;;;;;;11.63;10.63;;;;;;;;;;5107037;28;20032;-73
2023/08/12 06:04:44;;;;;;;10.65;9.80;;;;;;;;;;5105032;28;20036;-73
2023/08/12 06:07:10;;;;;;;11.15;10.10;;;;;;;;;;5104908;28;20035;-73
2023/08/12 06:09:35;;;;;;;11.98;10.55;;;;;;;;;;5105890;28;20024;-72
2023/08/12 06:12:01;;;;;;;11.15;10.25;;;;;;;;;;5104241;28;20114;-73
2023/08/12 06:14:28;;;;;;;11.77;10.48;;;;;;;;;;5105409;28;20475;-73
2023/08/12 06:16:53;;;;;;;11.52;10.38;;;;;;;;;;5101172;28;20039;-73
2023/08/12 06:19:19;;;;;;;13.15;10.98;;;;;;;;;;5105616;28;20034;-72
2023/08/12 06:21:44;;;;;;;11.27;10.25;;;;;;;;;;5107860;27;20044;-72
2023/08/12 06:24:10;;;;;;;10.02;8.90;;;;;;;;;;5104053;28;20032;-72
2023/08/12 06:26:35;;;;;;;11.50;10.05;;;;;;;;;;5105817;27;20036;-71
2023/08/12 06:29:01;;;;;;;11.23;10.32;;;;;;;;;;5104332;28;20110;-71
2023/08/12 06:31:26;;;;;;;11.55;10.55;;;;;;;;;;5106474;27;20172;-73
2023/08/12 06:33:52;;;;;;;11.82;10.73;;;;;;;;;;5103383;28;20039;-71
2023/08/12 06:36:17;;;;;;;11.77;10.65;;;;;;;;;;5106621;28;20035;-71
2023/08/12 06:38:43;;;;;;;11.93;11.00;;;;;;;;;;5102500;28;20045;-72
2023/08/12 06:41:09;;;;;;;11.45;10.27;;;;;;;;;;5106473;28;20712;-71
2023/08/12 06:43:35;;;;;;;11.60;10.43;;;;;;;;;;5085017;28;20038;-71
2023/08/12 06:46:01;;;;;;;11.10;10.15;;;;;;;;;;5106647;28;20040;-71
2023/08/12 06:48:26;;;;;;;11.40;10.48;;;;;;;;;;5102239;28;20042;-72
2023/08/12 06:50:55;;;;;;;12.05;11.05;;;;;;;;;;5103413;28;20039;-71
2023/08/12 06:53:21;;;;;;;11.25;10.38;;;;;;;;;;5106487;28;20035;-71
2023/08/12 06:55:46;;;;;;;11.35;10.35;;;;;;;;;;5106023;28;20035;-71
2023/08/12 06:58:14;;;;;;;11.00;10.20;;;;;;;;;;5105102;27;20399;-71
2023/08/12 07:00:40;;;;;;;11.00;10.02;;;;;;;;;;5103385;28;20028;-74
2023/08/12 07:03:05;;;;;;;12.00;10.90;;;;;;;;;;5106356;28;20028;-72
2023/08/12 07:05:31;;;;;;;11.73;10.35;;;;;;;;;;5101915;28;20571;-71
2023/08/12 07:07:57;;;;;;;11.50;10.38;;;;;;;;;;5100283;28;20068;-73
2023/08/12 07:10:22;;;;;;;10.45;9.68;;;;;;;;;;5105788;28;20054;-73
2023/08/12 07:12:48;;;;;;;10.02;9.25;;;;;;;;;;5106066;28;20043;-73
2023/08/12 07:15:13;;;;;;;9.98;9.18;;;;;;;;;;5106127;28;20039;-73
2023/08/12 07:17:39;;;;;;;10.10;9.20;;;;;;;;;;5102697;28;20031;-71
2023/08/12 07:20:06;;;;;;;9.82;8.93;;;;;;;;;;5105720;28;20046;-74
2023/08/12 07:22:31;;;;;;;10.73;9.68;;;;;;;;;;5087908;28;20039;-73
2023/08/12 07:24:59;;;;;;;10.50;9.50;;;;;;;;;;5104402;28;20031;-74
2023/08/12 07:27:29;;;;;;;10.40;9.43;;;;;;;;;;5102437;28;20058;-71
2023/08/12 07:29:54;;;;;;;10.18;9.27;;;;;;;;;;5105566;28;20028;-73
2023/08/12 07:32:21;;;;;;;9.40;8.60;;;;;;;;;;5104952;28;20398;-73
2023/08/12 07:34:46;;;;;;;10.32;9.23;;;;;;;;;;5103430;28;20043;-73
2023/08/12 07:37:12;;;;;;;9.65;8.77;;;;;;;;;;5099998;28;20038;-73
2023/08/12 07:39:37;;;;;;;12.98;11.48;;;;;;;;;;5098533;28;20034;-73
2023/08/12 07:42:03;;;;;;;10.05;9.10;;;;;;;;;;5084386;28;20058;-73
2023/08/12 07:44:29;;;;;;;9.77;8.82;;;;;;;;;;5102484;28;20042;-72
2023/08/12 07:46:54;;;;;;;14.35;8.63;;;;;;;;;;5100225;28;20160;-73
2023/08/12 07:49:21;;;;;;;10.00;9.20;;;;;;;;;;5101721;28;20042;-73
2023/08/12 07:51:47;;;;;;;9.32;8.35;;;;;;;;;;5099202;28;20475;-72
2023/08/12 07:54:12;;;;;;;9.82;9.02;;;;;;;;;;5102089;28;20038;-73
2023/08/12 07:56:38;;;;;;;10.68;8.93;;;;;;;;;;5101333;28;20115;-72
2023/08/12 07:59:03;;;;;;;9.45;8.70;;;;;;;;;;5082527;28;20048;-72
2023/08/12 08:01:29;;;;;;;9.43;8.63;;;;;;;;;;5102289;28;20035;-72
2023/08/12 08:03:55;;;;;;;9.88;8.48;;;;;;;;;;5100929;28;20043;-72
2023/08/12 08:06:22;;;;;;;9.25;8.20;;;;;;;;;;5099148;28;20035;-72
2023/08/12 08:08:47;;;;;;;9.20;8.50;;;;;;;;;;5100830;28;20506;-71
2023/08/12 08:11:13;;;;;;;9.48;8.52;;;;;;;;;;5100623;28;20036;-71
2023/08/12 08:13:38;;;;;;;8.70;7.90;;;;;;;;;;5096606;28;20503;-72
2023/08/12 08:16:04;;;;;;;11.88;8.60;;;;;;;;;;5100765;28;20152;-72
2023/08/12 08:18:29;;;;;;;9.30;8.30;;;;;;;;;;5099078;28;20063;-72
2023/08/12 08:20:55;;;;;;;10.52;8.40;;;;;;;;;;5092844;28;20042;-72
2023/08/12 08:23:20;;;;;;;10.60;7.88;;;;;;;;;;5101403;28;20066;-72
2023/08/12 08:25:46;;;;;;;9.00;8.30;;;;;;;;;;5100279;28;20043;-72
2023/08/12 08:28:12;;;;;;;7.88;7.18;;;;;;;;;;5098523;28;20509;-72
2023/08/12 08:30:38;;;;;;;11.65;8.00;;;;;;;;;;5098869;28;20088;-72
2023/08/12 08:33:03;;;;;;;12.05;8.25;;;;;;;;;;5079969;28;20043;-72
2023/08/12 08:35:30;;;;;;;8.82;8.02;;;;;;;;;;5092849;28;20039;-72
2023/08/12 08:37:55;;;;;;;10.65;8.63;;;;;;;;;;5082203;28;20034;-72
2023/08/12 08:40:21;;;;;;;8.95;8.25;;;;;;;;;;5098946;28;20024;-72
2023/08/12 08:42:51;;;;;;;9.25;8.57;;;;;;;;;;5099468;28;20047;-73
2023/08/12 08:45:17;;;;;;;8.93;8.20;;;;;;;;;;5104151;28;20111;-72
2023/08/12 08:47:44;;;;;;;8.68;7.88;;;;;;;;;;5104501;28;20694;-71
2023/08/12 08:50:10;;;;;;;9.25;8.45;;;;;;;;;;5103202;28;20103;-72
2023/08/12 08:52:37;;;;;;;8.63;7.88;;;;;;;;;;5100498;28;20232;-71
2023/08/12 08:55:04;;;;;;;8.82;7.82;;;;;;;;;;5085424;28;20032;-71
2023/08/12 08:57:30;;;;;;;8.10;7.50;;;;;;;;;;5107712;28;20036;-72
2023/08/12 08:59:56;;;;;;;10.27;7.25;;;;;;;;;;5106369;27;20054;-72
2023/08/12 09:02:23;;;;;;;8.15;7.38;;;;;;;;;;5107869;28;20542;-72
2023/08/12 09:04:49;;;;;;;7.85;7.22;;;;;;;;;;5108706;28;20062;-71
2023/08/12 09:07:15;;;;;;;8.63;7.93;;;;;;;;;;5103808;28;20036;-71
2023/08/12 09:09:45;;;;;;;8.10;7.43;;;;;;;;;;5108926;28;20516;-71
2023/08/12 09:12:14;;;;;;;7.82;7.13;;;;;;;;;;5104734;27;20063;-72
2023/08/12 09:14:40;;;;;;;9.20;7.03;;;;;;;;;;5103242;28;20493;-71
2023/08/12 09:17:06;;;;;;;7.50;6.65;;;;;;;;;;5103369;28;20039;-72
2023/08/12 09:19:32;;;;;;;7.93;6.88;;;;;;;;;;5104396;27;20023;-72
2023/08/12 09:21:58;;;;;;;7.93;7.20;;;;;;;;;;5108520;28;20043;-72
2023/08/12 09:24:27;;;;;;;8.00;7.25;;;;;;;;;;5108495;28;20072;-72
2023/08/12 09:26:55;;;;;;;7.53;7.03;;;;;;;;;;5108472;28;20499;-72
2023/08/12 09:29:31;;;;;;;11.48;7.38;;;;;;;;;;5104715;28;20035;-72
2023/08/12 09:32:07;;;;;;;7.18;6.57;;;;;;;;;;5108163;28;20399;-71
2023/08/12 09:34:32;;;;;;;7.53;6.93;;;;;;;;;;5106744;28;20161;-72
2023/08/12 09:36:58;;;;;;;7.70;7.10;;;;;;;;;;5106301;28;20505;-72
2023/08/12 09:39:24;;;;;;;7.55;6.95;;;;;;;;;;5107846;28;20109;-72
2023/08/12 09:41:51;;;;;;;8.27;7.57;;;;;;;;;;5107793;28;20031;-72
2023/08/12 09:44:16;;;;;;;7.55;7.05;;;;;;;;;;5106001;28;20083;-73
2023/08/12 09:46:42;;;;;;;9.00;7.22;;;;;;;;;;5108083;28;20122;-73
2023/08/12 09:49:08;;;;;;;10.38;7.38;;;;;;;;;;5107513;28;20040;-71
2023/08/12 09:51:35;;;;;;;8.00;7.40;;;;;;;;;;5107479;28;20072;-72
2023/08/12 09:54:02;;;;;;;8.63;7.60;;;;;;;;;;5109455;27;20043;-72
2023/08/12 09:56:33;;;;;;;8.93;7.70;;;;;;;;;;5107672;28;20023;-73
2023/08/12 09:59:01;;;;;;;9.95;7.72;;;;;;;;;;5107533;28;20035;-73
2023/08/12 10:01:27;;;;;;;9.00;8.10;;;;;;;;;;5104669;28;20550;-74
2023/08/12 10:03:53;;;;;;;10.98;7.55;;;;;;;;;;5103066;28;20035;-73
2023/08/12 10:06:19;;;;;;;8.50;6.97;;;;;;;;;;5107547;28;20031;-74
2023/08/12 10:08:46;;;;;;;8.02;7.28;;;;;;;;;;5106868;28;20036;-74
2023/08/12 10:11:13;;;;;;;8.30;7.70;;;;;;;;;;5106086;28;20084;-72
2023/08/12 10:13:40;;;;;;;8.25;6.75;;;;;;;;;;5103533;28;20063;-73
2023/08/12 10:16:06;;;;;;;8.95;7.20;;;;;;;;;;5089094;28;20070;-72
2023/08/12 10:18:33;;;;;;;8.10;7.30;;;;;;;;;;5104809;28;20055;-73
2023/08/12 10:20:59;;;;;;;7.53;7.00;;;;;;;;;;5103063;28;20062;-72
2023/08/12 10:23:25;;;;;;;7.28;6.78;;;;;;;;;;5104608;28;20071;-73
2023/08/12 10:25:54;;;;;;;8.30;7.57;;;;;;;;;;5107017;28;20066;-72
2023/08/12 10:28:19;;;;;;;;;;;;;;;;;;5105881;28;20091;-71
2023/08/12 10:30:45;;;;;;;8.02;7.40;;;;;;;;;;5103796;28;19924;-72
2023/08/12 10:33:14;;;;;;;8.10;7.50;;;;;;;;;;5104081;27;20035;-72
2023/08/12 10:35:45;;;;;;;7.97;7.20;;;;;;;;;;5105180;28;20039;-72
2023/08/12 10:38:13;;;;;;;8.18;7.47;;;;;;;;;;5110153;27;20030;-72
2023/08/12 10:40:38;;;;;;;8.50;7.75;;;;;;;;;;5106969;28;20027;-72
2023/08/12 10:43:04;;;;;;;8.45;7.75;;;;;;;;;;5105972;28;20050;-72
2023/08/12 10:45:43;;;;;;;9.18;7.38;;;;;;;;;;5107171;27;20040;-72
2023/08/12 10:48:10;;;;;;;8.70;7.97;;;;;;;;;;5106552;27;20058;-72
2023/08/12 10:50:35;;;;;;;8.45;7.60;;;;;;;;;;5088187;28;20046;-73
2023/08/12 10:53:25;;;;;;;8.40;7.80;;;;;;;;;;5113636;28;20051;-72
2023/08/12 10:55:58;;;;;;;8.48;7.88;;;;;;;;;;5114797;27;20055;-73
2023/08/12 10:58:25;;;;;;;8.73;7.85;;;;;;;;;;5109779;28;20088;-73
2023/08/12 11:00:56;;;;;;;8.38;7.68;;;;;;;;;;5102318;27;20039;-72
2023/08/12 11:03:22;;;;;;;8.30;7.70;;;;;;;;;;5104845;28;20036;-73
2023/08/12 11:05:48;;;;;;;7.95;7.32;;;;;;;;;;5082894;28;20043;-73
2023/08/12 11:08:14;;;;;;;7.75;7.22;;;;;;;;;;5099546;28;20039;-73
2023/08/12 11:10:40;;;;;;;8.20;7.43;;;;;;;;;;5090302;28;20035;-73
2023/08/12 11:13:06;;;;;;;8.13;7.50;;;;;;;;;;5101881;28;20653;-72
2023/08/12 11:15:36;;;;;;;8.70;7.72;;;;;;;;;;5105014;27;20115;-73
2023/08/12 11:18:10;;;;;;;8.27;7.57;;;;;;;;;;5099403;27;20108;-73
2023/08/12 11:20:37;;;;;;;8.00;7.40;;;;;;;;;;5104480;28;20039;-73
2023/08/12 11:23:04;;;;;;;8.05;7.45;;;;;;;;;;5086572;28;20043;-73
2023/08/12 11:25:31;;;;;;;7.75;7.15;;;;;;;;;;5103807;28;20043;-73
2023/08/12 11:27:57;;;;;;;8.35;7.53;;;;;;;;;;5105172;28;20392;-72
2023/08/12 11:30:23;;;;;;;7.80;7.07;;;;;;;;;;5104727;28;20479;-73
2023/08/12 11:32:51;;;;;;;8.07;7.25;;;;;;;;;;5104578;28;20039;-73
2023/08/12 11:35:18;;;;;;;12.68;8.48;;;;;;;;;;5103328;28;20507;-73
2023/08/12 11:37:45;;;;;;;7.63;7.05;;;;;;;;;;5085111;28;20043;-73
2023/08/12 11:40:14;;;;;;;8.17;7.43;;;;;;;;;;5102471;28;20068;-72
2023/08/12 11:42:41;;;;;;;7.90;7.10;;;;;;;;;;5102828;28;20320;-73
2023/08/12 11:45:07;;;;;;;8.20;7.32;;;;;;;;;;5102685;27;20027;-72
2023/08/12 11:47:34;;;;;;;9.25;7.57;;;;;;;;;;5102933;28;20095;-73
2023/08/12 11:50:11;;;;;;;8.32;7.43;;;;;;;;;;5098792;28;20433;-73
2023/08/12 11:52:37;;;;;;;8.18;7.45;;;;;;;;;;5097335;28;20096;-73
2023/08/12 11:55:04;;;;;;;8.32;7.47;;;;;;;;;;5103636;28;20039;-74
2023/08/12 11:57:34;;;;;;;7.90;7.25;;;;;;;;;;5103337;28;20119;-73
2023/08/12 12:00:08;;;;;;;8.25;7.55;;;;;;;;;;5101760;28;20036;-73
2023/08/12 12:02:51;;;;;;;9.52;7.85;;;;;;;;;;5097950;28;20080;-73
2023/08/12 12:05:18;;;;;;;8.93;8.02;;;;;;;;;;5103738;28;20027;-74
2023/08/12 12:07:44;;;;;;;9.10;8.07;;;;;;;;;;5103991;28;20035;-73
2023/08/12 12:10:15;;;;;;;7.28;6.68;;;;;;;;;;5098307;28;20028;-72
2023/08/12 12:12:41;;;;;;;8.55;7.00;;;;;;;;;;5099646;28;20780;-72
2023/08/12 12:15:07;;;;;;;7.82;6.72;;;;;;;;;;5108153;28;20085;-72
2023/08/12 12:17:33;;;;;;;7.22;6.72;;;;;;;;;;5101623;28;20031;-72
2023/08/12 12:20:00;;;;;;;9.27;6.97;;;;;;;;;;5099703;28;20074;-73
2023/08/12 12:22:30;;;;;;;8.15;7.40;;;;;;;;;;5104017;28;20034;-72
2023/08/12 12:25:00;;;;;;;7.97;7.28;;;;;;;;;;5099543;28;20031;-73
2023/08/12 12:27:26;;;;;;;11.55;7.70;;;;;;;;;;5100478;28;20058;-73
2023/08/12 12:29:53;;;;;;;7.85;7.25;;;;;;;;;;5100623;28;20054;-72
2023/08/12 12:32:20;;;;;;;8.45;7.70;;;;;;;;;;5107564;28;20129;-72
2023/08/12 12:34:46;;;;;;;11.10;8.23;;;;;;;;;;5107110;28;20756;-72
2023/08/12 12:37:13;;;;;;;11.18;8.23;;;;;;;;;;5105832;28;20028;-73
2023/08/12 12:39:39;;;;;;;10.32;9.10;;;;;;;;;;5103312;28;20059;-72
2023/08/12 12:42:05;;;;;;;11.23;10.13;;;;;;;;;;5104334;27;20147;-74
2023/08/12 12:44:31;;;;;;;11.93;10.93;;;;;;;;;;5100585;28;20039;-74
2023/08/12 12:46:56;;;;;;;10.93;9.93;;;;;;;;;;5104929;28;20036;-74
2023/08/12 12:49:22;;;;;;;11.32;10.20;;;;;;;;;;5106433;28;20038;-75
2023/08/12 12:51:48;;;;;;;10.88;9.93;;;;;;;;;;5104914;27;20050;-74
2023/08/12 12:54:14;;;;;;;11.30;10.20;;;;;;;;;;5100175;28;20031;-75
2023/08/12 12:56:39;;;;;;;15.82;13.57;;;;;;;;;;5100476;28;21283;-75
2023/08/12 12:59:05;;;;;;;16.58;14.80;;;;;;;;;;5101128;28;20027;-73
2023/08/12 13:01:31;;;;;;;17.23;15.57;;;;;;;;;;5106786;28;20031;-73
2023/08/12 13:03:56;;;;;;;16.95;14.98;;;;;;;;;;5104902;27;20577;-73
2023/08/12 13:06:22;;;;;;;17.48;15.80;;;;;;;;;;5102806;28;20047;-73
2023/08/12 13:08:47;;;;;;;17.35;15.80;;;;;;;;;;5108103;28;20038;-74
2023/08/12 13:11:13;;;;;;;16.27;14.82;;;;;;;;;;5107752;28;20040;-72
2023/08/12 13:13:38;;;;;;;16.75;15.25;;;;;;;;;;5108452;28;20152;-73
2023/08/12 13:16:04;;;;;;;15.43;14.13;;;;;;;;;;5104196;28;20054;-73
2023/08/12 13:18:29;;;;;;;14.90;13.80;;;;;;;;;;5107980;28;20036;-75
2023/08/12 13:20:55;;;;;;;14.55;13.35;;;;;;;;;;5105849;28;20043;-74
2023/08/12 13:23:20;;;;;;;15.43;14.13;;;;;;;;;;5108419;28;20031;-74
2023/08/12 13:25:46;;;;;;;14.75;13.60;;;;;;;;;;5103756;28;20177;-74
2023/08/12 13:28:11;;;;;;;15.85;14.30;;;;;;;;;;5107995;28;20386;-74
2023/08/12 13:30:37;;;;;;;15.48;13.95;;;;;;;;;;5105210;27;20384;-75
2023/08/12 13:33:04;;;;;;;15.65;14.30;;;;;;;;;;5104456;27;20070;-75
2023/08/12 13:35:29;;;;;;;15.00;13.80;;;;;;;;;;5107812;28;20483;-75
2023/08/12 13:37:55;;;;;;;15.38;14.18;;;;;;;;;;5104766;28;20040;-75
2023/08/12 13:40:20;;;;;;;15.02;13.82;;;;;;;;;;5104201;28;20032;-74
2023/08/12 13:42:47;;;;;;;15.50;14.30;;;;;;;;;;5104970;28;20039;-75
2023/08/12 13:45:13;;;;;;;15.80;14.43;;;;;;;;;;5107745;28;20039;-75
2023/08/12 13:47:38;;;;;;;15.27;14.18;;;;;;;;;;5106312;28;20034;-75
2023/08/12 13:50:04;;;;;;;16.40;14.75;;;;;;;;;;5105818;28;20040;-74
2023/08/12 13:52:30;;;;;;;15.98;14.30;;;;;;;;;;5107777;28;20418;-75
2023/08/12 13:54:56;;;;;;;13.85;12.85;;;;;;;;;;5104579;28;20039;-75
2023/08/12 13:57:21;;;;;;;14.88;13.77;;;;;;;;;;5105870;28;20031;-75
2023/08/12 13:59:47;;;;;;;15.63;14.35;;;;;;;;;;5105673;28;20023;-75
2023/08/12 14:02:13;;;;;;;15.32;14.05;;;;;;;;;;5107570;28;20023;-74
2023/08/12 14:04:39;;;;;;;15.60;14.25;;;;;;;;;;5107547;28;20543;-75
2023/08/12 14:07:05;;;;;;;14.05;12.95;;;;;;;;;;5105263;27;20039;-75
2023/08/12 14:09:30;;;;;;;14.25;13.00;;;;;;;;;;5106648;28;20113;-75
2023/08/12 14:11:57;;;;;;;13.52;12.43;;;;;;;;;;5107359;28;20127;-75
2023/08/12 14:14:22;;;;;;;13.38;12.10;;;;;;;;;;5104198;28;20422;-75
2023/08/12 14:16:48;;;;;;;12.80;11.90;;;;;;;;;;5104684;28;20035;-75
2023/08/12 14:19:16;;;;;;;11.98;11.18;;;;;;;;;;5107079;28;20032;-75
2023/08/12 14:21:42;;;;;;;11.95;10.98;;;;;;;;;;5107550;27;20036;-75